createdAt,value
2022-12-03T00:20:54.087Z,76.30
2022-12-03T00:42:39.862Z,76.83
2022-12-03T01:04:26.127Z,77.12
2022-12-03T01:26:12.310Z,76.78
2022-12-03T01:47:58.519Z,76.89
2022-12-03T02:09:44.360Z,77.52
2022-12-03T02:31:31.495Z,77.18
2022-12-03T02:53:23.112Z,77.98
2022-12-03T03:15:12.677Z,79.70
2022-12-03T03:36:58.881Z,79.38
2022-12-03T03:58:44.854Z,79.01
2022-12-03T04:20:30.609Z,78.80
2022-12-03T04:42:16.440Z,78.68
2022-12-03T05:04:02.696Z,78.23
2022-12-03T05:25:48.661Z,78.31
2022-12-03T05:47:35.714Z,79.03
2022-12-03T06:09:22.476Z,79.37
2022-12-03T06:31:11.020Z,78.52
2022-12-03T06:52:59.160Z,78.47
2022-12-03T07:14:44.935Z,78.88
2022-12-03T07:36:30.800Z,78.84
2022-12-03T07:58:16.659Z,78.71
2022-12-03T08:20:02.963Z,77.91
2022-12-03T08:42:13.880Z,77.31
2022-12-03T09:04:15.672Z,77.54
2022-12-03T09:26:01.998Z,76.44
2022-12-03T09:47:50.231Z,75.77
2022-12-03T10:09:36.345Z,75.04
2022-12-03T10:31:36.260Z,74.44
2022-12-03T10:53:24.216Z,74.81
2022-12-03T11:15:17.388Z,74.82
2022-12-03T11:37:30.510Z,74.33
2022-12-03T11:59:16.889Z,74.35
2022-12-03T12:21:33.528Z,74.51
2022-12-03T12:43:27.775Z,74.61
2022-12-03T13:05:15.733Z,74.38
2022-12-03T13:27:09.959Z,74.99
2022-12-03T13:49:00.419Z,74.96
2022-12-03T14:10:47.990Z,74.90
2022-12-03T14:32:33.824Z,75.93
2022-12-03T14:54:27.064Z,76.01
2022-12-03T15:16:13.114Z,76.41
2022-12-03T15:37:59.855Z,76.88
2022-12-03T15:59:46.257Z,76.86
2022-12-03T16:21:37.385Z,76.90
2022-12-03T16:43:23.587Z,77.38
2022-12-03T17:05:12.368Z,76.78
2022-12-03T17:26:58.274Z,77.22
2022-12-03T17:48:47.126Z,76.86
2022-12-03T18:10:35.435Z,77.26
2022-12-03T18:32:28.961Z,78.32
2022-12-03T18:54:15.900Z,77.74
2022-12-03T19:16:04.428Z,78.01
2022-12-03T19:37:50.395Z,77.66
2022-12-03T19:59:36.886Z,77.63
2022-12-03T20:21:22.976Z,77.41
2022-12-03T20:43:08.824Z,77.28
2022-12-03T21:04:56.139Z,77.65
2022-12-03T21:26:42.158Z,77.18
2022-12-03T21:48:27.952Z,76.97
2022-12-03T22:10:14.788Z,77.80
2022-12-03T22:32:00.692Z,77.28
2022-12-03T22:53:46.576Z,77.86
2022-12-03T23:15:32.691Z,78.25
2022-12-03T23:37:19.126Z,77.90
2022-12-03T23:59:04.873Z,78.49
